createdAt,value
2022-10-11T00:01:30.046Z,6.87
2022-10-11T00:04:25.383Z,7.57
2022-10-11T00:07:18.363Z,6.97
2022-10-11T00:10:16.061Z,8.67
2022-10-11T00:13:12.600Z,8.23
2022-10-11T00:16:01.847Z,7.80
2022-10-11T00:18:56.762Z,7.90
2022-10-11T00:21:51.701Z,8.40
2022-10-11T00:24:46.116Z,8.27
2022-10-11T00:27:41.053Z,8.63
2022-10-11T00:30:38.739Z,8.80
2022-10-11T00:33:35.945Z,8.20
2022-10-11T00:36:29.315Z,8.33
2022-10-11T00:39:25.713Z,8.87
2022-10-11T00:42:19.524Z,8.53
2022-10-11T00:46:04.410Z,7.97
2022-10-11T00:49:08.676Z,8.37
2022-10-11T00:52:04.075Z,8.13
2022-10-11T00:55:00.874Z,8.83
2022-10-11T00:57:56.562Z,9.70
2022-10-11T01:00:50.885Z,8.90
2022-10-11T01:03:40.724Z,8.10
2022-10-11T01:06:37.303Z,9.13
2022-10-11T01:09:30.413Z,9.73
2022-10-11T01:12:31.953Z,9.53
2022-10-11T01:15:26.896Z,8.63
2022-10-11T01:18:37.621Z,9.00
2022-10-11T01:21:41.824Z,9.83
2022-10-11T01:24:49.254Z,9.23
2022-10-11T01:28:04.903Z,9.10
2022-10-11T01:31:08.953Z,8.50
2022-10-11T01:34:02.920Z,7.97
2022-10-11T01:37:08.674Z,8.83
2022-10-11T01:40:05.019Z,8.63
2022-10-11T01:42:58.581Z,8.97
2022-10-11T01:45:53.215Z,8.30
2022-10-11T01:48:51.831Z,8.60
2022-10-11T01:51:51.158Z,8.53
2022-10-11T01:55:09.692Z,8.70
2022-10-11T01:58:09.712Z,9.50
2022-10-11T02:01:11.162Z,9.07
2022-10-11T02:04:08.154Z,8.97
2022-10-11T02:07:05.491Z,8.87
2022-10-11T02:10:05.615Z,9.10
2022-10-11T02:12:59.392Z,9.20
2022-10-11T02:15:53.456Z,9.50
2022-10-11T02:18:56.286Z,8.80
2022-10-11T02:21:54.715Z,9.03
2022-10-11T02:24:49.509Z,8.43
2022-10-11T02:27:45.398Z,8.63
2022-10-11T02:30:35.971Z,8.27
2022-10-11T02:33:28.725Z,8.87
2022-10-11T02:36:25.555Z,8.20
2022-10-11T02:39:26.514Z,8.30
2022-10-11T02:42:20.757Z,7.47
2022-10-11T02:45:15.785Z,7.40
2022-10-11T02:48:08.819Z,9.03
2022-10-11T02:51:02.968Z,8.60
2022-10-11T02:53:53.625Z,9.10
2022-10-11T02:56:50.786Z,8.67
2022-10-11T02:59:44.780Z,8.43
2022-10-11T03:02:38.140Z,8.60
2022-10-11T03:05:41.373Z,9.07
2022-10-11T03:08:36.429Z,10.03
2022-10-11T03:11:26.174Z,9.50
2022-10-11T03:14:20.895Z,9.00
2022-10-11T03:17:35.154Z,8.80
2022-10-11T03:20:26.279Z,9.33
2022-10-11T03:23:16.249Z,8.87
2022-10-11T03:26:06.309Z,8.73
2022-10-11T03:29:01.162Z,8.60
2022-10-11T03:31:56.138Z,9.70
2022-10-11T03:34:46.634Z,8.63
2022-10-11T03:37:44.524Z,8.27
2022-10-11T03:40:35.024Z,8.03
2022-10-11T03:43:28.372Z,7.67
2022-10-11T03:46:23.568Z,7.00
2022-10-11T03:49:18.411Z,7.33
2022-10-11T03:52:10.317Z,7.27
2022-10-11T03:55:03.970Z,7.00
2022-10-11T03:58:07.987Z,6.83
2022-10-11T04:01:01.166Z,6.20
2022-10-11T04:04:05.892Z,5.27
2022-10-11T04:06:55.950Z,5.00
2022-10-11T04:09:47.783Z,4.40
2022-10-11T04:12:39.684Z,3.70
2022-10-11T04:15:32.313Z,3.93
2022-10-11T04:18:21.948Z,4.00
2022-10-11T04:21:13.628Z,3.93
2022-10-11T04:24:20.293Z,4.00
2022-10-11T04:27:09.924Z,4.13
2022-10-11T04:29:59.032Z,4.37
2022-10-11T04:32:48.537Z,4.50
2022-10-11T04:35:37.675Z,4.30
2022-10-11T04:38:29.213Z,3.63
2022-10-11T04:41:19.740Z,3.57
2022-10-11T04:44:08.604Z,3.17
2022-10-11T04:46:57.510Z,3.30
2022-10-11T04:49:46.617Z,3.10
2022-10-11T04:52:35.787Z,3.30
2022-10-11T04:55:24.624Z,3.10
2022-10-11T04:58:14.886Z,3.20
2022-10-11T05:01:04.299Z,3.33
2022-10-11T05:03:52.809Z,3.10
2022-10-11T05:06:41.886Z,3.00
2022-10-11T05:09:31.025Z,3.00
2022-10-11T05:12:22.504Z,2.90
2022-10-11T05:15:16.495Z,2.87
2022-10-11T05:18:43.013Z,2.67
2022-10-11T05:21:31.600Z,2.73
2022-10-11T05:24:19.890Z,2.60
2022-10-11T05:27:08.364Z,2.80
2022-10-11T05:29:56.733Z,2.67
2022-10-11T05:32:46.476Z,3.07
2022-10-11T05:35:35.013Z,2.60
2022-10-11T05:38:23.732Z,2.70
2022-10-11T05:41:14.048Z,2.47
2022-10-11T05:44:38.414Z,2.57
2022-10-11T05:47:27.505Z,2.90
2022-10-11T05:50:24.294Z,2.73
2022-10-11T05:53:15.638Z,2.70
2022-10-11T05:56:04.541Z,2.83
2022-10-11T05:58:55.647Z,2.57
2022-10-11T06:01:46.426Z,2.80
2022-10-11T06:04:37.515Z,2.80
2022-10-11T06:07:27.529Z,2.60
2022-10-11T06:10:17.266Z,2.60
2022-10-11T06:13:06.089Z,2.53
2022-10-11T06:15:34.529Z,2.50
2022-10-11T06:18:02.890Z,2.57
2022-10-11T06:20:31.363Z,2.80
2022-10-11T06:23:01.460Z,2.50
2022-10-11T06:25:29.761Z,2.63
2022-10-11T06:27:58.397Z,2.60
2022-10-11T06:30:26.656Z,2.40
2022-10-11T06:32:54.946Z,2.80
2022-10-11T06:35:23.329Z,3.00
2022-10-11T06:37:51.460Z,2.70
2022-10-11T06:40:21.998Z,2.60
2022-10-11T06:43:00.785Z,2.10
2022-10-11T06:45:29.092Z,2.80
2022-10-11T06:47:57.447Z,2.50
2022-10-11T06:50:47.237Z,2.10
2022-10-11T06:53:14.239Z,2.20
2022-10-11T06:55:43.890Z,2.67
2022-10-11T06:58:40.088Z,3.00
2022-10-11T07:01:21.351Z,2.70
2022-10-11T07:03:49.645Z,2.73
2022-10-11T07:06:19.113Z,2.77
2022-10-11T07:08:47.586Z,2.73
2022-10-11T07:11:18.671Z,2.70
2022-10-11T07:13:50.702Z,2.60
2022-10-11T07:16:19.235Z,2.80
2022-10-11T07:18:47.895Z,2.87
2022-10-11T07:21:16.957Z,2.67
2022-10-11T07:23:45.674Z,2.70
2022-10-11T07:26:19.460Z,2.60
2022-10-11T07:28:54.515Z,3.10
2022-10-11T07:31:26.990Z,3.20
2022-10-11T07:33:55.093Z,2.73
2022-10-11T07:36:24.244Z,2.83
2022-10-11T07:38:52.491Z,3.00
2022-10-11T07:41:21.976Z,3.00
2022-10-11T07:43:50.992Z,3.30
2022-10-11T07:46:19.520Z,2.80
2022-10-11T07:48:47.602Z,3.00
2022-10-11T07:51:17.868Z,2.80
2022-10-11T07:53:46.993Z,3.13
2022-10-11T07:56:16.785Z,2.93
2022-10-11T07:58:46.182Z,2.70
2022-10-11T08:01:14.650Z,2.93
2022-10-11T08:03:42.822Z,2.53
2022-10-11T08:06:12.734Z,3.10
2022-10-11T08:08:40.802Z,2.70
2022-10-11T08:11:08.890Z,2.60
2022-10-11T08:13:37.084Z,2.63
2022-10-11T08:16:13.122Z,2.80
2022-10-11T08:18:41.201Z,3.13
2022-10-11T08:21:09.772Z,2.67
2022-10-11T08:23:38.003Z,2.70
2022-10-11T08:26:07.242Z,2.80
2022-10-11T08:28:35.745Z,2.97
2022-10-11T08:31:04.036Z,3.10
2022-10-11T08:33:33.502Z,2.90
2022-10-11T08:36:05.612Z,3.30
2022-10-11T08:38:33.998Z,3.20
2022-10-11T08:41:02.371Z,3.30
2022-10-11T08:43:40.657Z,3.47
2022-10-11T08:46:09.712Z,3.17
2022-10-11T08:48:41.889Z,3.07
2022-10-11T08:51:15.869Z,3.07
2022-10-11T08:53:47.677Z,3.77
2022-10-11T08:56:16.161Z,2.93
2022-10-11T08:58:48.093Z,2.70
2022-10-11T09:01:19.237Z,2.70
2022-10-11T09:03:49.144Z,3.07
2022-10-11T09:06:26.197Z,3.00
2022-10-11T09:09:18.326Z,3.03
2022-10-11T09:11:56.576Z,2.33
2022-10-11T09:14:59.054Z,2.50
2022-10-11T09:17:38.839Z,2.63
2022-10-11T09:20:32.293Z,2.40
2022-10-11T09:23:03.882Z,2.40
2022-10-11T09:25:34.249Z,2.93
2022-10-11T09:28:13.370Z,2.57
2022-10-11T09:30:48.180Z,2.23
2022-10-11T09:33:19.894Z,2.30
2022-10-11T09:35:50.900Z,2.23
2022-10-11T09:38:27.567Z,2.13
2022-10-11T09:41:07.049Z,2.80
2022-10-11T09:43:35.085Z,2.33
2022-10-11T09:46:03.502Z,2.10
2022-10-11T09:48:38.546Z,2.50
2022-10-11T09:51:13.148Z,2.50
2022-10-11T09:53:51.595Z,2.43
2022-10-11T09:56:19.739Z,2.10
2022-10-11T09:58:47.883Z,2.27
2022-10-11T10:01:24.343Z,2.00
2022-10-11T10:04:11.124Z,2.50
2022-10-11T10:06:40.654Z,2.60
2022-10-11T10:09:27.373Z,2.73
2022-10-11T10:11:55.884Z,3.03
2022-10-11T10:14:26.309Z,2.53
2022-10-11T10:17:03.019Z,2.50
2022-10-11T10:19:31.978Z,2.63
2022-10-11T10:22:01.375Z,2.40
2022-10-11T10:24:38.115Z,2.23
2022-10-11T10:27:09.217Z,2.50
2022-10-11T10:29:37.452Z,2.50
2022-10-11T10:32:14.683Z,2.10
2022-10-11T10:34:54.033Z,2.50
2022-10-11T10:37:28.040Z,2.50
2022-10-11T10:39:58.844Z,2.47
2022-10-11T10:42:27.024Z,2.57
2022-10-11T10:44:56.886Z,2.40
2022-10-11T10:47:47.965Z,2.17
2022-10-11T10:50:19.394Z,2.20
2022-10-11T10:53:10.042Z,2.40
2022-10-11T10:55:41.171Z,2.00
2022-10-11T10:58:34.186Z,2.33
2022-10-11T11:01:06.800Z,2.40
2022-10-11T11:03:38.156Z,2.23
2022-10-11T11:06:08.484Z,1.97
2022-10-11T11:08:49.673Z,1.97
2022-10-11T11:11:33.450Z,2.10
2022-10-11T11:14:07.481Z,2.00
2022-10-11T11:16:39.221Z,2.30
2022-10-11T11:19:10.900Z,1.93
2022-10-11T11:21:43.641Z,2.27
2022-10-11T11:24:18.077Z,2.33
2022-10-11T11:26:48.984Z,2.17
2022-10-11T11:29:27.322Z,2.10
2022-10-11T11:32:06.647Z,2.40
2022-10-11T11:34:37.781Z,2.50
2022-10-11T11:37:07.499Z,2.17
2022-10-11T11:39:38.816Z,2.27
2022-10-11T11:42:09.940Z,2.57
2022-10-11T11:44:40.295Z,2.20
2022-10-11T11:47:11.899Z,2.70
2022-10-11T11:52:21.604Z,2.60
2022-10-11T11:54:58.040Z,2.17
2022-10-11T11:57:35.096Z,2.67
2022-10-11T12:00:06.290Z,2.50
2022-10-11T12:02:45.453Z,2.53
2022-10-11T12:05:15.937Z,2.37
2022-10-11T12:07:58.885Z,2.30
2022-10-11T12:10:36.155Z,2.30
2022-10-11T12:13:20.668Z,2.27
2022-10-11T12:15:59.115Z,2.33
2022-10-11T12:18:27.500Z,2.20
2022-10-11T12:21:03.943Z,2.40
2022-10-11T12:23:47.021Z,2.27
2022-10-11T12:26:38.896Z,2.47
2022-10-11T12:29:43.669Z,2.40
2022-10-11T12:32:53.600Z,2.17
2022-10-11T12:35:49.855Z,2.43
2022-10-11T12:38:22.371Z,2.90
2022-10-11T12:40:51.499Z,2.53
2022-10-11T12:43:33.828Z,2.53
2022-10-11T12:46:43.132Z,2.60
2022-10-11T12:49:29.036Z,2.07
2022-10-11T12:52:01.491Z,2.00
2022-10-11T12:55:03.111Z,2.00
2022-10-11T12:58:07.404Z,2.80
2022-10-11T13:00:43.897Z,2.13
2022-10-11T13:03:32.327Z,2.23
2022-10-11T13:06:01.978Z,1.93
2022-10-11T13:08:32.142Z,2.40
2022-10-11T13:11:03.314Z,2.10
2022-10-11T13:13:34.029Z,2.20
2022-10-11T13:16:10.529Z,1.97
2022-10-11T13:18:42.713Z,2.67
2022-10-11T13:21:22.995Z,2.47
2022-10-11T13:23:55.566Z,2.30
2022-10-11T13:26:23.699Z,2.47
2022-10-11T13:28:51.902Z,2.57
2022-10-11T13:31:21.359Z,2.37
2022-10-11T13:33:49.699Z,2.33
2022-10-11T13:36:18.704Z,2.00
2022-10-11T13:38:53.449Z,2.33
2022-10-11T13:41:21.816Z,2.20
2022-10-11T13:43:50.417Z,2.23
2022-10-11T13:46:23.791Z,2.30
2022-10-11T13:49:00.229Z,2.20
2022-10-11T13:51:32.408Z,2.30
2022-10-11T13:54:03.232Z,2.27
2022-10-11T13:56:33.555Z,2.10
2022-10-11T13:59:01.817Z,2.70
2022-10-11T14:01:37.932Z,2.37
2022-10-11T14:04:07.432Z,2.50
2022-10-11T14:06:44.233Z,2.50
2022-10-11T14:09:21.758Z,2.33
2022-10-11T14:11:50.127Z,2.53
2022-10-11T14:14:40.737Z,2.47
2022-10-11T14:17:16.463Z,2.63
2022-10-11T14:19:44.884Z,2.20
2022-10-11T14:22:16.592Z,2.23
2022-10-11T14:24:45.062Z,2.40
2022-10-11T14:27:17.420Z,2.13
2022-10-11T14:30:00.272Z,2.23
2022-10-11T14:32:35.289Z,2.57
2022-10-11T14:35:03.441Z,2.40
2022-10-11T14:37:31.743Z,2.60
2022-10-11T14:39:59.811Z,2.73
2022-10-11T14:42:27.845Z,2.43
2022-10-11T14:44:55.957Z,2.53
2022-10-11T14:47:24.107Z,2.53
2022-10-11T14:49:53.570Z,2.90
2022-10-11T14:52:21.628Z,2.60
2022-10-11T14:54:49.860Z,3.10
2022-10-11T14:57:17.927Z,2.60
2022-10-11T14:59:46.091Z,2.30
2022-10-11T15:02:14.168Z,2.70
2022-10-11T15:04:42.232Z,2.57
2022-10-11T15:07:12.511Z,2.43
2022-10-11T15:09:40.549Z,2.10
2022-10-11T15:12:09.707Z,2.17
2022-10-11T15:14:37.852Z,2.60
2022-10-11T15:17:05.971Z,2.70
2022-10-11T15:19:34.101Z,2.33
2022-10-11T15:22:04.267Z,2.23
2022-10-11T15:24:33.733Z,2.53
2022-10-11T15:27:01.823Z,2.37
2022-10-11T15:29:29.964Z,2.60
2022-10-11T15:31:58.020Z,2.40
2022-10-11T15:34:26.049Z,2.70
2022-10-11T15:36:54.102Z,3.00
2022-10-11T15:39:26.271Z,2.80
2022-10-11T15:41:55.682Z,3.20
2022-10-11T15:44:23.765Z,3.10
2022-10-11T15:46:51.868Z,3.00
2022-10-11T15:49:20.178Z,3.10
2022-10-11T15:51:48.237Z,2.57
2022-10-11T15:54:16.298Z,2.30
2022-10-11T15:56:45.443Z,3.70
2022-10-11T15:59:14.904Z,3.20
2022-10-11T16:01:43.068Z,2.40
2022-10-11T16:04:11.322Z,2.50
2022-10-11T16:06:40.915Z,2.20
2022-10-11T16:09:08.971Z,2.07
2022-10-11T16:11:37.102Z,2.50
2022-10-11T16:14:05.298Z,2.40
2022-10-11T16:16:34.790Z,2.43
2022-10-11T16:19:02.855Z,2.40
2022-10-11T16:21:31.112Z,2.10
2022-10-11T16:23:59.785Z,2.00
2022-10-11T16:26:27.890Z,2.53
2022-10-11T16:28:56.559Z,2.20
2022-10-11T16:31:24.710Z,2.40
2022-10-11T16:33:54.237Z,2.20
2022-10-11T16:36:40.425Z,2.10
2022-10-11T16:39:10.371Z,2.27
2022-10-11T16:41:38.574Z,2.47
2022-10-11T16:44:06.665Z,2.50
2022-10-11T16:46:34.906Z,2.47
2022-10-11T16:49:04.865Z,2.30
2022-10-11T16:51:32.987Z,2.47
2022-10-11T16:54:01.246Z,2.40
2022-10-11T16:56:29.441Z,2.50
2022-10-11T16:58:57.472Z,2.40
2022-10-11T17:01:25.562Z,2.20
2022-10-11T17:03:53.754Z,2.10
2022-10-11T17:06:23.199Z,2.23
2022-10-11T17:08:51.379Z,2.03
2022-10-11T17:11:20.067Z,1.90
2022-10-11T17:13:48.158Z,2.30
2022-10-11T17:16:16.403Z,2.30
2022-10-11T17:18:44.586Z,2.13
2022-10-11T17:21:14.418Z,1.97
2022-10-11T17:23:44.023Z,2.07
2022-10-11T17:26:19.174Z,2.00
2022-10-11T17:28:47.606Z,2.00
2022-10-11T17:31:15.861Z,1.90
2022-10-11T17:33:43.924Z,2.00
2022-10-11T17:36:18.297Z,2.00
2022-10-11T17:38:47.836Z,2.03
2022-10-11T17:41:16.199Z,1.80
2022-10-11T17:43:44.454Z,1.83
2022-10-11T17:46:13.273Z,2.20
2022-10-11T17:48:41.371Z,1.90
2022-10-11T17:51:10.554Z,2.10
2022-10-11T17:53:38.781Z,2.30
2022-10-11T17:56:10.426Z,2.33
2022-10-11T17:58:38.568Z,2.20
2022-10-11T18:01:08.241Z,2.50
2022-10-11T18:03:36.809Z,2.00
2022-10-11T18:06:05.615Z,2.13
2022-10-11T18:08:39.810Z,2.03
2022-10-11T18:11:12.463Z,1.90
2022-10-11T18:13:43.110Z,2.17
2022-10-11T18:16:11.735Z,1.90
2022-10-11T18:18:40.111Z,2.17
2022-10-11T18:21:08.108Z,2.20
2022-10-11T18:23:38.083Z,2.30
2022-10-11T18:26:15.049Z,2.20
2022-10-11T18:28:43.776Z,2.20
2022-10-11T18:31:14.849Z,2.00
2022-10-11T18:33:45.426Z,2.20
2022-10-11T18:36:14.332Z,2.40
2022-10-11T18:38:46.233Z,2.23
2022-10-11T18:41:17.185Z,2.07
2022-10-11T18:43:50.000Z,1.80
2022-10-11T18:46:18.544Z,2.30
2022-10-11T18:48:48.234Z,2.13
2022-10-11T18:51:18.291Z,2.00
2022-10-11T18:53:46.607Z,1.90
2022-10-11T18:56:17.206Z,2.40
2022-10-11T18:58:45.596Z,2.00
2022-10-11T19:01:15.911Z,2.07
2022-10-11T19:03:44.331Z,2.50
2022-10-11T19:06:17.094Z,1.80
2022-10-11T19:08:45.335Z,1.83
2022-10-11T19:11:15.576Z,2.40
2022-10-11T19:13:43.808Z,2.63
2022-10-11T19:16:13.333Z,2.97
2022-10-11T19:18:44.233Z,2.53
2022-10-11T19:21:14.271Z,2.53
2022-10-11T19:23:43.832Z,2.10
2022-10-11T19:26:15.835Z,2.33
2022-10-11T19:28:44.163Z,2.13
2022-10-11T19:31:16.159Z,2.23
2022-10-11T19:33:44.622Z,2.00
2022-10-11T19:36:13.474Z,2.03
2022-10-11T19:38:44.492Z,2.03
2022-10-11T19:41:13.032Z,2.03
2022-10-11T19:43:42.502Z,2.50
2022-10-11T19:46:12.550Z,2.30
2022-10-11T19:48:42.689Z,2.23
2022-10-11T19:51:12.538Z,2.17
2022-10-11T19:53:40.972Z,2.60
2022-10-11T19:56:10.479Z,2.50
2022-10-11T19:58:38.746Z,2.20
2022-10-11T20:01:09.961Z,2.37
2022-10-11T20:03:59.802Z,2.43
2022-10-11T20:06:48.152Z,2.50
2022-10-11T20:09:36.586Z,2.20
2022-10-11T20:12:29.202Z,2.73
2022-10-11T20:15:17.941Z,2.43
2022-10-11T20:18:08.061Z,2.63
2022-10-11T20:20:57.737Z,2.27
2022-10-11T20:23:47.356Z,2.13
2022-10-11T20:26:35.761Z,2.10
2022-10-11T20:29:25.173Z,2.20
2022-10-11T20:32:13.594Z,2.37
2022-10-11T20:35:03.311Z,2.37
2022-10-11T20:37:53.552Z,2.00
2022-10-11T20:40:41.969Z,2.77
2022-10-11T20:43:30.269Z,3.53
2022-10-11T20:46:19.909Z,2.47
2022-10-11T20:49:09.612Z,2.50
2022-10-11T20:51:59.302Z,2.57
2022-10-11T20:54:47.641Z,2.53
2022-10-11T20:57:36.479Z,2.23
2022-10-11T21:00:24.975Z,2.50
2022-10-11T21:03:13.397Z,2.03
2022-10-11T21:06:01.757Z,2.10
2022-10-11T21:08:51.394Z,2.10
2022-10-11T21:11:39.736Z,2.00
2022-10-11T21:14:28.069Z,2.60
2022-10-11T21:17:16.882Z,3.20
2022-10-11T21:20:06.552Z,2.30
2022-10-11T21:22:54.907Z,2.40
2022-10-11T21:25:44.606Z,2.50
2022-10-11T21:28:33.053Z,2.90
2022-10-11T21:31:22.211Z,2.57
2022-10-11T21:34:10.691Z,3.00
2022-10-11T21:37:00.465Z,3.40
2022-10-11T21:39:48.861Z,3.57
2022-10-11T21:42:38.923Z,3.13
2022-10-11T21:45:27.486Z,3.30
2022-10-11T21:48:15.799Z,3.30
2022-10-11T21:51:04.188Z,3.00
2022-10-11T21:53:53.160Z,3.13
2022-10-11T21:56:41.577Z,3.63
2022-10-11T21:59:31.297Z,3.40
2022-10-11T22:02:19.638Z,2.83
2022-10-11T22:05:08.384Z,2.73
2022-10-11T22:07:56.732Z,3.07
2022-10-11T22:10:45.301Z,3.13
2022-10-11T22:13:34.303Z,3.00
2022-10-11T22:16:23.974Z,2.67
2022-10-11T22:19:12.369Z,2.90
2022-10-11T22:22:00.675Z,2.97
2022-10-11T22:24:48.976Z,2.97
2022-10-11T22:27:37.339Z,3.00
2022-10-11T22:30:25.671Z,2.77
2022-10-11T22:33:15.353Z,2.93
2022-10-11T22:36:05.505Z,2.40
2022-10-11T22:38:54.428Z,3.10
2022-10-11T22:41:42.749Z,2.77
2022-10-11T22:44:31.074Z,2.67
2022-10-11T22:47:19.416Z,2.33
2022-10-11T22:50:10.141Z,2.53
2022-10-11T22:52:58.477Z,2.70
2022-10-11T22:55:46.864Z,2.40
2022-10-11T22:58:35.232Z,2.90
2022-10-11T23:01:23.561Z,2.90
2022-10-11T23:04:11.947Z,2.67
2022-10-11T23:07:04.978Z,2.30
2022-10-11T23:09:53.634Z,2.77
2022-10-11T23:12:41.984Z,2.70
2022-10-11T23:15:30.359Z,2.63
2022-10-11T23:18:18.943Z,2.77
2022-10-11T23:21:07.583Z,2.50
2022-10-11T23:23:57.248Z,2.80
2022-10-11T23:26:45.570Z,2.70
2022-10-11T23:29:33.871Z,2.50
2022-10-11T23:32:22.156Z,2.43
2022-10-11T23:35:10.686Z,2.33
2022-10-11T23:37:59.055Z,2.50
2022-10-11T23:40:48.739Z,2.57
2022-10-11T23:43:37.093Z,2.53
2022-10-11T23:46:25.676Z,2.07
2022-10-11T23:49:14.095Z,2.80
2022-10-11T23:52:02.433Z,2.40
2022-10-11T23:54:50.811Z,2.60
2022-10-11T23:57:40.774Z,2.50
